sensor_id;sensor_type;location;lat;lon;timestamp;pressure;altitude;pressure_sealevel;temperature;humidity
81162;BME280;70638;-33.792;151.032;2024-03-23T00:54:45;101663.05;;;22.67;100.00
81162;BME280;70638;-33.792;151.032;2024-03-23T00:57:24;101654.84;;;22.59;100.00
81162;BME280;70638;-33.792;151.032;2024-03-23T00:59:51;101653.22;;;22.65;100.00
81162;BME280;70638;-33.792;151.032;2024-03-23T01:02:23;101642.65;;;22.66;100.00
81162;BME280;70638;-33.792;151.032;2024-03-23T01:04:47;101643.56;;;22.70;100.00
81162;BME280;70638;-33.792;151.032;2024-03-23T01:07:21;101644.85;;;22.93;100.00
81162;BME280;70638;-33.792;151.032;2024-03-23T01:17:22;101631.02;;;22.65;100.00
81162;BME280;70638;-33.792;151.032;2024-03-23T01:20:11;101630.91;;;22.90;100.00
81162;BME280;70638;-33.792;151.032;2024-03-23T01:22:32;101630.36;;;23.01;100.00
81162;BME280;70638;-33.792;151.032;2024-03-23T01:24:54;101625.05;;;23.29;100.00
81162;BME280;70638;-33.792;151.032;2024-03-23T01:27:21;101622.64;;;23.28;100.00
81162;BME280;70638;-33.792;151.032;2024-03-23T01:29:50;101622.20;;;23.47;100.00
81162;BME280;70638;-33.792;151.032;2024-03-23T01:32:37;101613.74;;;23.57;99.95
81162;BME280;70638;-33.792;151.032;2024-03-23T01:34:49;101604.53;;;23.53;98.61
81162;BME280;70638;-33.792;151.032;2024-03-23T01:37:27;101601.88;;;23.48;99.55
81162;BME280;70638;-33.792;151.032;2024-03-23T01:40:35;101600.33;;;23.23;98.67
81162;BME280;70638;-33.792;151.032;2024-03-23T01:42:23;101600.08;;;23.16;99.67
81162;BME280;70638;-33.792;151.032;2024-03-23T01:45:23;101603.86;;;23.59;96.64
81162;BME280;70638;-33.792;151.032;2024-03-23T01:47:23;101605.56;;;23.78;94.59
81162;BME280;70638;-33.792;151.032;2024-03-23T01:50:02;101609.04;;;23.81;93.39
81162;BME280;70638;-33.792;151.032;2024-03-23T01:52:39;101601.25;;;24.25;98.04
81162;BME280;70638;-33.792;151.032;2024-03-23T01:57:48;101588.81;;;24.08;93.18
81162;BME280;70638;-33.792;151.032;2024-03-23T02:00:15;101587.64;;;24.22;93.53
81162;BME280;70638;-33.792;151.032;2024-03-23T02:02:28;101588.69;;;24.10;91.91
81162;BME280;70638;-33.792;151.032;2024-03-23T02:04:56;101590.66;;;23.87;94.07
81162;BME280;70638;-33.792;151.032;2024-03-23T02:07:31;101599.36;;;23.55;94.69
81162;BME280;70638;-33.792;151.032;2024-03-23T02:10:02;101598.42;;;23.43;96.78
81162;BME280;70638;-33.792;151.032;2024-03-23T02:12:27;101598.20;;;23.40;97.07
81162;BME280;70638;-33.792;151.032;2024-03-23T02:15:01;101601.55;;;23.45;96.29
81162;BME280;70638;-33.792;151.032;2024-03-23T02:17:41;101605.56;;;23.64;94.75
81162;BME280;70638;-33.792;151.032;2024-03-23T02:20:03;101608.11;;;23.73;95.10
81162;BME280;70638;-33.792;151.032;2024-03-23T02:22:41;101603.04;;;23.80;95.37
81162;BME280;70638;-33.792;151.032;2024-03-23T02:25:04;101595.88;;;23.77;94.92
81162;BME280;70638;-33.792;151.032;2024-03-23T02:27:33;101601.27;;;23.70;95.74
81162;BME280;70638;-33.792;151.032;2024-03-23T02:30:02;101603.58;;;23.55;96.13
81162;BME280;70638;-33.792;151.032;2024-03-23T02:32:33;101603.48;;;23.50;95.53
81162;BME280;70638;-33.792;151.032;2024-03-23T02:35:04;101594.64;;;23.44;95.08
81162;BME280;70638;-33.792;151.032;2024-03-23T02:37:34;101584.79;;;23.48;94.67
81162;BME280;70638;-33.792;151.032;2024-03-23T02:40:05;101582.72;;;23.54;95.81
81162;BME280;70638;-33.792;151.032;2024-03-23T02:42:38;101579.02;;;23.83;98.36
81162;BME280;70638;-33.792;151.032;2024-03-23T02:45:09;101577.92;;;24.07;99.37
81162;BME280;70638;-33.792;151.032;2024-03-23T02:47:41;101568.12;;;24.31;95.69
81162;BME280;70638;-33.792;151.032;2024-03-23T02:50:18;101560.39;;;24.60;90.22
81162;BME280;70638;-33.792;151.032;2024-03-23T02:52:41;101562.95;;;24.56;87.59
81162;BME280;70638;-33.792;151.032;2024-03-23T02:55:20;101555.36;;;24.71;88.21
81162;BME280;70638;-33.792;151.032;2024-03-23T02:57:41;101548.59;;;24.74;88.28
81162;BME280;70638;-33.792;151.032;2024-03-23T03:00:14;101537.91;;;24.74;87.64
81162;BME280;70638;-33.792;151.032;2024-03-23T03:02:46;101532.89;;;24.80;88.88
81162;BME280;70638;-33.792;151.032;2024-03-23T03:05:20;101533.62;;;24.82;86.47
81162;BME280;70638;-33.792;151.032;2024-03-23T03:07:44;101536.09;;;24.35;86.48
81162;BME280;70638;-33.792;151.032;2024-03-23T03:10:14;101529.06;;;24.30;86.78
81162;BME280;70638;-33.792;151.032;2024-03-23T03:12:53;101520.40;;;24.37;83.72
81162;BME280;70638;-33.792;151.032;2024-03-23T03:15:13;101505.95;;;24.65;86.10
81162;BME280;70638;-33.792;151.032;2024-03-23T03:17:51;101496.93;;;24.81;84.30
81162;BME280;70638;-33.792;151.032;2024-03-23T03:20:24;101489.30;;;25.02;84.04
81162;BME280;70638;-33.792;151.032;2024-03-23T03:22:48;101487.17;;;25.52;80.30
81162;BME280;70638;-33.792;151.032;2024-03-23T03:25:21;101487.70;;;25.62;77.41
81162;BME280;70638;-33.792;151.032;2024-03-23T03:27:55;101474.64;;;25.51;79.31
81162;BME280;70638;-33.792;151.032;2024-03-23T03:30:27;101483.64;;;25.46;79.19
81162;BME280;70638;-33.792;151.032;2024-03-23T03:32:54;101487.82;;;25.22;79.70
81162;BME280;70638;-33.792;151.032;2024-03-23T03:35:17;101477.47;;;25.04;83.59
81162;BME280;70638;-33.792;151.032;2024-03-23T03:40:18;101473.98;;;24.83;84.71
81162;BME280;70638;-33.792;151.032;2024-03-23T03:42:53;101472.55;;;24.62;81.83
81162;BME280;70638;-33.792;151.032;2024-03-23T03:45:32;101470.91;;;24.28;83.02
81162;BME280;70638;-33.792;151.032;2024-03-23T03:47:54;101460.70;;;24.13;84.22
81162;BME280;70638;-33.792;151.032;2024-03-23T03:50:23;101459.21;;;24.10;87.41
81162;BME280;70638;-33.792;151.032;2024-03-23T03:52:49;101463.90;;;24.08;86.08
81162;BME280;70638;-33.792;151.032;2024-03-23T03:55:23;101462.28;;;24.04;85.64
81162;BME280;70638;-33.792;151.032;2024-03-23T03:57:56;101462.12;;;24.02;86.40
81162;BME280;70638;-33.792;151.032;2024-03-23T04:00:27;101465.73;;;24.24;84.28
81162;BME280;70638;-33.792;151.032;2024-03-23T04:02:52;101464.61;;;24.25;83.80
81162;BME280;70638;-33.792;151.032;2024-03-23T04:05:31;101474.61;;;24.23;85.82
81162;BME280;70638;-33.792;151.032;2024-03-23T04:07:56;101471.91;;;24.24;86.07
81162;BME280;70638;-33.792;151.032;2024-03-23T04:10:25;101468.08;;;24.45;87.57
81162;BME280;70638;-33.792;151.032;2024-03-23T04:13:00;101466.39;;;24.42;87.03
81162;BME280;70638;-33.792;151.032;2024-03-23T04:15:29;101466.10;;;24.40;87.03
81162;BME280;70638;-33.792;151.032;2024-03-23T04:18:05;101467.32;;;24.31;88.82
81162;BME280;70638;-33.792;151.032;2024-03-23T04:20:24;101459.36;;;24.25;89.07
81162;BME280;70638;-33.792;151.032;2024-03-23T04:22:59;101451.45;;;24.20;89.47
81162;BME280;70638;-33.792;151.032;2024-03-23T04:25:29;101447.25;;;24.33;89.74
81162;BME280;70638;-33.792;151.032;2024-03-23T04:27:57;101454.89;;;24.42;85.81
81162;BME280;70638;-33.792;151.032;2024-03-23T04:30:27;101463.03;;;24.53;86.68
81162;BME280;70638;-33.792;151.032;2024-03-23T04:33:02;101461.48;;;24.53;85.21
81162;BME280;70638;-33.792;151.032;2024-03-23T04:40:31;101465.80;;;24.91;85.89
81162;BME280;70638;-33.792;151.032;2024-03-23T04:43:09;101466.48;;;24.80;87.19
81162;BME280;70638;-33.792;151.032;2024-03-23T04:45:31;101467.42;;;24.44;86.99
81162;BME280;70638;-33.792;151.032;2024-03-23T04:48:01;101472.98;;;24.14;89.13
81162;BME280;70638;-33.792;151.032;2024-03-23T04:50:32;101471.54;;;24.09;87.50
81162;BME280;70638;-33.792;151.032;2024-03-23T04:53:01;101471.34;;;24.28;90.00
81162;BME280;70638;-33.792;151.032;2024-03-23T04:55:34;101454.50;;;24.19;88.55
81162;BME280;70638;-33.792;151.032;2024-03-23T04:58:05;101460.05;;;24.37;91.48
81162;BME280;70638;-33.792;151.032;2024-03-23T05:00:33;101456.23;;;24.35;92.03
81162;BME280;70638;-33.792;151.032;2024-03-23T05:03:02;101449.88;;;24.39;91.08
81162;BME280;70638;-33.792;151.032;2024-03-23T05:05:32;101453.69;;;24.29;91.73
81162;BME280;70638;-33.792;151.032;2024-03-23T05:08:08;101452.20;;;24.29;91.79
81162;BME280;70638;-33.792;151.032;2024-03-23T05:10:34;101454.17;;;24.23;93.10
81162;BME280;70638;-33.792;151.032;2024-03-23T05:13:02;101445.72;;;24.12;90.40
81162;BME280;70638;-33.792;151.032;2024-03-23T05:15:36;101446.19;;;24.08;91.73
81162;BME280;70638;-33.792;151.032;2024-03-23T05:18:03;101445.80;;;23.97;88.64
81162;BME280;70638;-33.792;151.032;2024-03-23T05:20:36;101442.73;;;23.86;89.28
81162;BME280;70638;-33.792;151.032;2024-03-23T05:23:13;101448.38;;;23.48;90.56
81162;BME280;70638;-33.792;151.032;2024-03-23T05:25:41;101456.83;;;23.65;92.92
81162;BME280;70638;-33.792;151.032;2024-03-23T05:28:06;101461.12;;;23.76;93.54
81162;BME280;70638;-33.792;151.032;2024-03-23T05:30:40;101464.29;;;23.58;92.47
81162;BME280;70638;-33.792;151.032;2024-03-23T05:33:11;101466.84;;;23.59;94.61
81162;BME280;70638;-33.792;151.032;2024-03-23T05:35:38;101463.42;;;23.62;95.06
81162;BME280;70638;-33.792;151.032;2024-03-23T05:38:08;101461.20;;;23.56;94.56
81162;BME280;70638;-33.792;151.032;2024-03-23T05:40:47;101462.05;;;23.41;93.43
81162;BME280;70638;-33.792;151.032;2024-03-23T05:43:08;101468.88;;;23.27;91.76
81162;BME280;70638;-33.792;151.032;2024-03-23T05:45:39;101473.58;;;23.18;94.73
81162;BME280;70638;-33.792;151.032;2024-03-23T05:48:14;101475.83;;;23.28;98.58
81162;BME280;70638;-33.792;151.032;2024-03-23T05:50:44;101468.15;;;23.26;96.57
81162;BME280;70638;-33.792;151.032;2024-03-23T05:53:11;101462.54;;;23.23;96.16
81162;BME280;70638;-33.792;151.032;2024-03-23T05:55:47;101459.00;;;23.18;96.49
81162;BME280;70638;-33.792;151.032;2024-03-23T05:58:12;101462.33;;;23.25;99.72
81162;BME280;70638;-33.792;151.032;2024-03-23T06:00:56;101469.61;;;23.20;100.00
81162;BME280;70638;-33.792;151.032;2024-03-23T06:03:31;101471.11;;;23.12;99.27
81162;BME280;70638;-33.792;151.032;2024-03-23T06:05:44;101475.37;;;22.93;98.14
81162;BME280;70638;-33.792;151.032;2024-03-23T06:08:25;101485.73;;;22.88;100.00
81162;BME280;70638;-33.792;151.032;2024-03-23T06:11:01;101481.16;;;22.80;100.00
81162;BME280;70638;-33.792;151.032;2024-03-23T06:13:17;101480.05;;;22.71;100.00
81162;BME280;70638;-33.792;151.032;2024-03-23T06:16:06;101474.18;;;22.68;100.00
81162;BME280;70638;-33.792;151.032;2024-03-23T06:18:25;101472.57;;;22.60;100.00
81162;BME280;70638;-33.792;151.032;2024-03-23T06:20:56;101473.53;;;22.59;100.00
81162;BME280;70638;-33.792;151.032;2024-03-23T06:23:29;101474.33;;;22.57;100.00
81162;BME280;70638;-33.792;151.032;2024-03-23T06:28:29;101470.61;;;22.52;100.00
81162;BME280;70638;-33.792;151.032;2024-03-23T06:30:50;101467.94;;;22.46;100.00
81162;BME280;70638;-33.792;151.032;2024-03-23T06:33:30;101467.42;;;22.46;100.00
81162;BME280;70638;-33.792;151.032;2024-03-23T06:35:51;101464.27;;;22.23;100.00
81162;BME280;70638;-33.792;151.032;2024-03-23T06:38:33;101457.67;;;22.05;100.00
81162;BME280;70638;-33.792;151.032;2024-03-23T06:41:04;101459.97;;;21.92;100.00
81162;BME280;70638;-33.792;151.032;2024-03-23T06:43:29;101467.27;;;21.89;100.00
81162;BME280;70638;-33.792;151.032;2024-03-23T06:46:14;101479.10;;;21.87;100.00
81162;BME280;70638;-33.792;151.032;2024-03-23T06:48:25;101490.25;;;21.78;100.00
81162;BME280;70638;-33.792;151.032;2024-03-23T06:50:56;101486.06;;;21.76;100.00
81162;BME280;70638;-33.792;151.032;2024-03-23T06:53:22;101491.43;;;21.77;100.00
81162;BME280;70638;-33.792;151.032;2024-03-23T06:56:01;101494.02;;;21.75;100.00
81162;BME280;70638;-33.792;151.032;2024-03-23T06:58:28;101502.06;;;21.66;100.00
81162;BME280;70638;-33.792;151.032;2024-03-23T07:00:59;101505.38;;;21.50;100.00
81162;BME280;70638;-33.792;151.032;2024-03-23T07:03:37;101504.48;;;21.37;100.00
81162;BME280;70638;-33.792;151.032;2024-03-23T07:05:59;101500.35;;;21.29;100.00
81162;BME280;70638;-33.792;151.032;2024-03-23T07:11:00;101495.12;;;21.18;100.00
81162;BME280;70638;-33.792;151.032;2024-03-23T07:13:28;101495.20;;;21.17;100.00
81162;BME280;70638;-33.792;151.032;2024-03-23T07:16:04;101492.75;;;21.17;100.00
81162;BME280;70638;-33.792;151.032;2024-03-23T07:18:29;101490.20;;;21.14;100.00
81162;BME280;70638;-33.792;151.032;2024-03-23T07:21:00;101489.73;;;21.06;100.00
81162;BME280;70638;-33.792;151.032;2024-03-23T07:23:32;101484.52;;;21.03;100.00
81162;BME280;70638;-33.792;151.032;2024-03-23T07:25:58;101488.22;;;21.04;100.00
81162;BME280;70638;-33.792;151.032;2024-03-23T07:28:34;101485.80;;;21.05;100.00
81162;BME280;70638;-33.792;151.032;2024-03-23T07:31:03;101487.74;;;21.10;100.00
81162;BME280;70638;-33.792;151.032;2024-03-23T07:33:36;101497.12;;;21.11;100.00
81162;BME280;70638;-33.792;151.032;2024-03-23T07:36:14;101497.84;;;21.08;100.00
81162;BME280;70638;-33.792;151.032;2024-03-23T07:38:35;101497.70;;;21.00;100.00
81162;BME280;70638;-33.792;151.032;2024-03-23T07:41:08;101497.76;;;20.92;100.00
81162;BME280;70638;-33.792;151.032;2024-03-23T07:43:36;101495.77;;;20.83;100.00
81162;BME280;70638;-33.792;151.032;2024-03-23T07:46:04;101497.42;;;20.77;100.00
81162;BME280;70638;-33.792;151.032;2024-03-23T07:48:34;101505.22;;;20.70;100.00
81162;BME280;70638;-33.792;151.032;2024-03-23T07:51:15;101512.08;;;20.61;100.00
81162;BME280;70638;-33.792;151.032;2024-03-23T07:53:35;101518.77;;;20.57;100.00
81162;BME280;70638;-33.792;151.032;2024-03-23T07:56:15;101528.32;;;20.60;100.00
81162;BME280;70638;-33.792;151.032;2024-03-23T07:58:38;101533.65;;;20.58;100.00
81162;BME280;70638;-33.792;151.032;2024-03-23T08:01:14;101540.90;;;20.53;100.00
81162;BME280;70638;-33.792;151.032;2024-03-23T08:03:41;101541.51;;;20.44;100.00
81162;BME280;70638;-33.792;151.032;2024-03-23T08:06:15;101549.39;;;20.37;100.00
81162;BME280;70638;-33.792;151.032;2024-03-23T08:08:39;101552.73;;;20.32;100.00
81162;BME280;70638;-33.792;151.032;2024-03-23T08:11:18;101554.03;;;20.27;100.00
81162;BME280;70638;-33.792;151.032;2024-03-23T08:13:40;101548.73;;;20.22;100.00
81162;BME280;70638;-33.792;151.032;2024-03-23T08:16:17;101556.50;;;20.20;100.00
81162;BME280;70638;-33.792;151.032;2024-03-23T08:18:46;101569.49;;;20.21;100.00
81162;BME280;70638;-33.792;151.032;2024-03-23T08:21:11;101575.38;;;20.27;100.00
81162;BME280;70638;-33.792;151.032;2024-03-23T08:23:55;101583.49;;;20.27;100.00
81162;BME280;70638;-33.792;151.032;2024-03-23T08:29:20;101584.60;;;20.20;100.00
81162;BME280;70638;-33.792;151.032;2024-03-23T08:31:16;101584.28;;;20.15;100.00
81162;BME280;70638;-33.792;151.032;2024-03-23T08:33:43;101578.05;;;20.16;100.00
81162;BME280;70638;-33.792;151.032;2024-03-23T08:36:15;101571.64;;;20.16;100.00
81162;BME280;70638;-33.792;151.032;2024-03-23T08:38:43;101566.33;;;20.14;100.00
81162;BME280;70638;-33.792;151.032;2024-03-23T08:41:13;101565.06;;;20.16;100.00
81162;BME280;70638;-33.792;151.032;2024-03-23T08:43:47;101566.08;;;20.14;100.00
81162;BME280;70638;-33.792;151.032;2024-03-23T08:46:19;101563.27;;;20.11;100.00
81162;BME280;70638;-33.792;151.032;2024-03-23T08:48:46;101572.48;;;20.11;100.00
81162;BME280;70638;-33.792;151.032;2024-03-23T08:51:16;101574.86;;;20.10;100.00
81162;BME280;70638;-33.792;151.032;2024-03-23T08:53:45;101575.30;;;20.07;100.00
81162;BME280;70638;-33.792;151.032;2024-03-23T08:56:15;101576.61;;;20.05;100.00
81162;BME280;70638;-33.792;151.032;2024-03-23T08:58:46;101584.45;;;20.01;100.00
81162;BME280;70638;-33.792;151.032;2024-03-23T09:01:17;101592.58;;;19.99;100.00
81162;BME280;70638;-33.792;151.032;2024-03-23T09:03:48;101593.58;;;19.98;100.00
81162;BME280;70638;-33.792;151.032;2024-03-23T09:06:19;101594.11;;;19.99;100.00
81162;BME280;70638;-33.792;151.032;2024-03-23T09:08:49;101594.16;;;19.97;100.00
81162;BME280;70638;-33.792;151.032;2024-03-23T09:11:19;101593.49;;;19.93;100.00
81162;BME280;70638;-33.792;151.032;2024-03-23T09:13:54;101593.32;;;19.90;100.00
81162;BME280;70638;-33.792;151.032;2024-03-23T09:16:23;101584.96;;;19.87;100.00
81162;BME280;70638;-33.792;151.032;2024-03-23T09:18:51;101592.98;;;19.84;100.00
81162;BME280;70638;-33.792;151.032;2024-03-23T09:21:22;101588.88;;;19.77;100.00
81162;BME280;70638;-33.792;151.032;2024-03-23T09:23:52;101600.05;;;19.80;100.00
81162;BME280;70638;-33.792;151.032;2024-03-23T09:26:22;101604.25;;;19.79;100.00
81162;BME280;70638;-33.792;151.032;2024-03-23T09:28:58;101604.00;;;19.78;100.00
81162;BME280;70638;-33.792;151.032;2024-03-23T09:31:26;101608.78;;;19.78;100.00
81162;BME280;70638;-33.792;151.032;2024-03-23T09:33:55;101607.31;;;19.76;100.00
81162;BME280;70638;-33.792;151.032;2024-03-23T09:36:25;101605.17;;;19.77;100.00
81162;BME280;70638;-33.792;151.032;2024-03-23T09:39:03;101611.73;;;19.78;100.00
81162;BME280;70638;-33.792;151.032;2024-03-23T09:41:24;101615.85;;;19.76;100.00
81162;BME280;70638;-33.792;151.032;2024-03-23T09:43:54;101617.81;;;19.73;100.00
81162;BME280;70638;-33.792;151.032;2024-03-23T09:46:26;101624.03;;;19.75;100.00
81162;BME280;70638;-33.792;151.032;2024-03-23T09:48:59;101620.20;;;19.76;100.00
81162;BME280;70638;-33.792;151.032;2024-03-23T09:51:26;101622.34;;;19.76;100.00
81162;BME280;70638;-33.792;151.032;2024-03-23T09:53:57;101628.91;;;19.74;100.00
81162;BME280;70638;-33.792;151.032;2024-03-23T09:56:27;101633.92;;;19.71;100.00
81162;BME280;70638;-33.792;151.032;2024-03-23T09:59:04;101638.44;;;19.70;100.00
81162;BME280;70638;-33.792;151.032;2024-03-23T10:01:29;101639.80;;;19.70;100.00
81162;BME280;70638;-33.792;151.032;2024-03-23T10:03:59;101640.06;;;19.69;100.00
81162;BME280;70638;-33.792;151.032;2024-03-23T10:06:29;101638.94;;;19.67;100.00
81162;BME280;70638;-33.792;151.032;2024-03-23T10:09:01;101640.11;;;19.64;100.00
81162;BME280;70638;-33.792;151.032;2024-03-23T10:11:31;101652.47;;;19.62;100.00
81162;BME280;70638;-33.792;151.032;2024-03-23T10:14:00;101650.52;;;19.60;100.00
81162;BME280;70638;-33.792;151.032;2024-03-23T10:16:32;101651.36;;;19.61;100.00
81162;BME280;70638;-33.792;151.032;2024-03-23T10:19:01;101649.48;;;19.61;100.00
81162;BME280;70638;-33.792;151.032;2024-03-23T10:21:30;101648.91;;;19.63;100.00
81162;BME280;70638;-33.792;151.032;2024-03-23T10:24:10;101652.50;;;19.65;100.00
81162;BME280;70638;-33.792;151.032;2024-03-23T10:26:33;101650.96;;;19.65;100.00
81162;BME280;70638;-33.792;151.032;2024-03-23T10:29:10;101651.40;;;19.67;100.00
81162;BME280;70638;-33.792;151.032;2024-03-23T10:31:34;101651.33;;;19.72;100.00
81162;BME280;70638;-33.792;151.032;2024-03-23T10:34:04;101655.11;;;19.76;100.00
81162;BME280;70638;-33.792;151.032;2024-03-23T10:36:42;101658.34;;;19.77;100.00
81162;BME280;70638;-33.792;151.032;2024-03-23T10:39:07;101657.06;;;19.77;100.00
81162;BME280;70638;-33.792;151.032;2024-03-23T10:41:36;101662.42;;;19.75;100.00
81162;BME280;70638;-33.792;151.032;2024-03-23T10:44:11;101666.80;;;19.73;100.00
81162;BME280;70638;-33.792;151.032;2024-03-23T10:46:37;101659.45;;;19.71;100.00
81162;BME280;70638;-33.792;151.032;2024-03-23T10:49:07;101653.22;;;19.67;100.00
81162;BME280;70638;-33.792;151.032;2024-03-23T10:51:37;101651.95;;;19.61;100.00
81162;BME280;70638;-33.792;151.032;2024-03-23T10:54:08;101641.87;;;19.54;100.00
81162;BME280;70638;-33.792;151.032;2024-03-23T10:56:39;101640.48;;;19.48;100.00
81162;BME280;70638;-33.792;151.032;2024-03-23T10:59:09;101650.62;;;19.46;100.00
81162;BME280;70638;-33.792;151.032;2024-03-23T11:01:59;101660.38;;;19.44;100.00
81162;BME280;70638;-33.792;151.032;2024-03-23T11:04:10;101674.95;;;19.44;100.00
81162;BME280;70638;-33.792;151.032;2024-03-23T11:06:40;101680.02;;;19.51;100.00
81162;BME280;70638;-33.792;151.032;2024-03-23T11:11:45;101659.27;;;19.43;100.00
81162;BME280;70638;-33.792;151.032;2024-03-23T11:14:21;101659.58;;;19.39;100.00
81162;BME280;70638;-33.792;151.032;2024-03-23T11:16:43;101659.56;;;19.33;100.00
81162;BME280;70638;-33.792;151.032;2024-03-23T11:19:38;101659.30;;;19.31;100.00
81162;BME280;70638;-33.792;151.032;2024-03-23T11:24:27;101661.23;;;19.25;100.00
81162;BME280;70638;-33.792;151.032;2024-03-23T11:27:18;101675.64;;;19.22;100.00
81162;BME280;70638;-33.792;151.032;2024-03-23T11:29:28;101682.78;;;19.21;100.00
81162;BME280;70638;-33.792;151.032;2024-03-23T11:31:51;101690.62;;;19.21;100.00
81162;BME280;70638;-33.792;151.032;2024-03-23T11:34:23;101687.55;;;19.21;100.00
81162;BME280;70638;-33.792;151.032;2024-03-23T11:37:04;101689.33;;;19.19;100.00
81162;BME280;70638;-33.792;151.032;2024-03-23T11:39:28;101689.77;;;19.18;100.00
81162;BME280;70638;-33.792;151.032;2024-03-23T11:41:55;101696.74;;;19.19;100.00
81162;BME280;70638;-33.792;151.032;2024-03-23T11:44:29;101702.12;;;19.19;100.00
81162;BME280;70638;-33.792;151.032;2024-03-23T11:47:09;101696.33;;;19.18;100.00
81162;BME280;70638;-33.792;151.032;2024-03-23T11:49:28;101704.05;;;19.13;100.00
81162;BME280;70638;-33.792;151.032;2024-03-23T11:52:00;101701.22;;;19.11;100.00
81162;BME280;70638;-33.792;151.032;2024-03-23T11:54:27;101698.42;;;19.09;100.00
81162;BME280;70638;-33.792;151.032;2024-03-23T11:57:02;101696.02;;;19.07;100.00
81162;BME280;70638;-33.792;151.032;2024-03-23T11:59:39;101693.27;;;19.05;100.00
81162;BME280;70638;-33.792;151.032;2024-03-23T12:01:59;101691.12;;;19.02;100.00
81162;BME280;70638;-33.792;151.032;2024-03-23T12:04:44;101678.84;;;18.99;100.00
81162;BME280;70638;-33.792;151.032;2024-03-23T12:07:18;101670.53;;;18.95;100.00
81162;BME280;70638;-33.792;151.032;2024-03-23T12:09:25;101676.95;;;18.97;100.00
81162;BME280;70638;-33.792;151.032;2024-03-23T12:12:05;101676.45;;;18.99;100.00
81162;BME280;70638;-33.792;151.032;2024-03-23T12:17:20;101680.06;;;19.05;100.00
81162;BME280;70638;-33.792;151.032;2024-03-23T12:19:38;101679.63;;;19.05;100.00
81162;BME280;70638;-33.792;151.032;2024-03-23T12:22:06;101675.12;;;19.03;100.00
81162;BME280;70638;-33.792;151.032;2024-03-23T12:24:39;101677.06;;;19.02;100.00
81162;BME280;70638;-33.792;151.032;2024-03-23T12:27:18;101664.20;;;19.01;100.00
81162;BME280;70638;-33.792;151.032;2024-03-23T12:29:45;101652.59;;;18.98;100.00
81162;BME280;70638;-33.792;151.032;2024-03-23T12:32:17;101652.66;;;18.92;100.00
81162;BME280;70638;-33.792;151.032;2024-03-23T12:34:52;101652.98;;;18.90;100.00
81162;BME280;70638;-33.792;151.032;2024-03-23T12:37:11;101639.58;;;18.88;100.00
81162;BME280;70638;-33.792;151.032;2024-03-23T12:39:36;101639.31;;;18.85;100.00
81162;BME280;70638;-33.792;151.032;2024-03-23T12:42:05;101640.06;;;18.82;100.00
81162;BME280;70638;-33.792;151.032;2024-03-23T12:44:36;101639.53;;;18.81;100.00
81162;BME280;70638;-33.792;151.032;2024-03-23T12:47:18;101640.64;;;18.81;100.00
81162;BME280;70638;-33.792;151.032;2024-03-23T12:49:44;101641.92;;;18.84;100.00
81162;BME280;70638;-33.792;151.032;2024-03-23T12:52:17;101637.44;;;18.85;100.00
81162;BME280;70638;-33.792;151.032;2024-03-23T12:54:54;101644.41;;;18.86;100.00
81162;BME280;70638;-33.792;151.032;2024-03-23T12:57:04;101648.85;;;18.85;100.00
81162;BME280;70638;-33.792;151.032;2024-03-23T12:59:38;101647.08;;;18.88;100.00
81162;BME280;70638;-33.792;151.032;2024-03-23T13:02:08;101633.69;;;18.89;100.00
81162;BME280;70638;-33.792;151.032;2024-03-23T13:04:49;101626.04;;;18.91;100.00
81162;BME280;70638;-33.792;151.032;2024-03-23T13:07:09;101626.98;;;18.90;100.00
81162;BME280;70638;-33.792;151.032;2024-03-23T13:09:47;101632.27;;;18.90;100.00
81162;BME280;70638;-33.792;151.032;2024-03-23T13:12:19;101640.53;;;18.91;100.00
81162;BME280;70638;-33.792;151.032;2024-03-23T13:14:58;101643.09;;;18.90;100.00
81162;BME280;70638;-33.792;151.032;2024-03-23T13:17:20;101634.12;;;18.88;100.00
81162;BME280;70638;-33.792;151.032;2024-03-23T13:19:48;101626.19;;;18.89;100.00
81162;BME280;70638;-33.792;151.032;2024-03-23T13:22:20;101614.38;;;18.93;100.00
81162;BME280;70638;-33.792;151.032;2024-03-23T13:25:24;101604.14;;;18.94;100.00
81162;BME280;70638;-33.792;151.032;2024-03-23T13:27:20;101601.69;;;18.97;100.00
81162;BME280;70638;-33.792;151.032;2024-03-23T13:29:50;101603.30;;;18.97;100.00
81162;BME280;70638;-33.792;151.032;2024-03-23T13:32:17;101608.67;;;18.93;100.00
81162;BME280;70638;-33.792;151.032;2024-03-23T13:34:53;101617.54;;;18.97;100.00
81162;BME280;70638;-33.792;151.032;2024-03-23T13:37:22;101616.11;;;18.99;100.00
81162;BME280;70638;-33.792;151.032;2024-03-23T13:39:58;101619.08;;;18.97;100.00
81162;BME280;70638;-33.792;151.032;2024-03-23T13:42:28;101617.45;;;18.94;100.00
81162;BME280;70638;-33.792;151.032;2024-03-23T13:45:02;101612.52;;;18.95;100.00
81162;BME280;70638;-33.792;151.032;2024-03-23T13:47:30;101606.20;;;18.97;100.00
81162;BME280;70638;-33.792;151.032;2024-03-23T13:50:02;101595.37;;;18.94;100.00
81162;BME280;70638;-33.792;151.032;2024-03-23T13:52:26;101592.88;;;18.89;100.00
81162;BME280;70638;-33.792;151.032;2024-03-23T13:55:13;101595.85;;;18.85;100.00